La Crosse, Florida
Current Conditions -  °F | °C
As of 12:53 AM on Saturday 29 Nov 2014 (Local Time) from KGNV Reporting Station
Clear Clear  
Wind Chill: 33°   Ceiling: Unl
Heat Index: 33°   Visibility: 10mi
Dew Point: 32°   Wind: 0mph
Humidity: 96%   Direction: NA
Pressure: 30.31"   Gusts: NA
Location:  29.84°N, 82.4°W
Report Text: KGNV 290553Z 00000KT 10SM CLR 01/00 A3031 RMK AO2 SLP264 T00060000 10067 20006 58010
Loading
Personal Weather Stations






























Interactive Weather Map New forecast layout! Learn more

10-Day Weather Forecast

Advertisements
Track Severe Weather on mobile